Euharlee, Georgia
Current Conditions -  °F | °C
As of 9:53 AM on Thursday 25 Dec 2014 (Local Time) from KVPC Reporting Station
Overcast Overcast  
Wind Chill: 42°   Ceiling: 3000
Heat Index: 42°   Visibility: 10mi
Dew Point: 35°   Wind: 0mph
Humidity: 76%   Direction: NA
Pressure: 30.23"   Gusts: NA
Location:  34.237°N, 84.9888°W
Report Text: KVPC 251453Z AUTO 00000KT 10SM OVC030 06/02 A3023 RMK AO2 SLP233 T00560017 53034
Loading
Personal Weather Stations






























Interactive Weather Map New forecast layout! Learn more

10-Day Weather Forecast

Advertisements
Track Severe Weather on mobile